createdAt,value
2022-09-11T00:01:43.578Z,1.90
2022-09-11T00:04:11.060Z,1.98
2022-09-11T00:06:38.629Z,2.17
2022-09-11T00:09:07.477Z,1.77
2022-09-11T00:11:43.167Z,1.90
2022-09-11T00:14:13.955Z,2.00
2022-09-11T00:16:45.652Z,1.95
2022-09-11T00:19:20.349Z,2.10
2022-09-11T00:21:50.592Z,2.33
2022-09-11T00:24:20.414Z,1.73
2022-09-11T00:26:47.851Z,1.92
2022-09-11T00:29:15.144Z,2.03
2022-09-11T00:31:42.715Z,2.00
2022-09-11T00:34:12.928Z,1.98
2022-09-11T00:36:41.674Z,1.98
2022-09-11T00:39:12.043Z,2.05
2022-09-11T00:41:44.699Z,2.03
2022-09-11T00:44:40.376Z,2.10
2022-09-11T00:47:09.722Z,2.25
2022-09-11T00:49:46.819Z,2.10
2022-09-11T00:52:33.114Z,2.30
2022-09-11T00:55:08.643Z,2.17
2022-09-11T00:57:49.591Z,2.33
2022-09-11T01:00:17.401Z,2.13
2022-09-11T01:02:53.405Z,2.05
2022-09-11T01:05:26.695Z,2.30
2022-09-11T01:07:56.448Z,2.03
2022-09-11T01:10:49.119Z,1.98
2022-09-11T01:13:47.644Z,2.22
2022-09-11T01:16:30.293Z,2.10
2022-09-11T01:22:17.869Z,2.33
2022-09-11T01:25:22.358Z,2.20
2022-09-11T01:28:05.285Z,2.15
2022-09-11T01:30:41.761Z,1.95
2022-09-11T01:33:25.034Z,2.40
2022-09-11T01:36:21.123Z,2.30
2022-09-11T01:39:03.956Z,2.30
2022-09-11T01:42:14.346Z,2.38
2022-09-11T01:44:55.396Z,2.03
2022-09-11T01:47:30.170Z,2.00
2022-09-11T01:50:24.436Z,2.35
2022-09-11T01:53:00.772Z,1.73
2022-09-11T01:55:44.100Z,2.08
2022-09-11T01:58:28.081Z,1.98
2022-09-11T02:01:10.023Z,2.05
2022-09-11T02:03:52.642Z,2.28
2022-09-11T02:07:11.073Z,2.28
2022-09-11T02:09:51.682Z,2.50
2022-09-11T02:12:25.601Z,2.40
2022-09-11T02:14:54.866Z,2.47
2022-09-11T02:18:02.018Z,2.58
2022-09-11T02:20:34.746Z,2.63
2022-09-11T02:23:07.024Z,2.67
2022-09-11T02:25:34.068Z,2.67
2022-09-11T02:28:05.716Z,2.55
2022-09-11T02:30:33.634Z,2.88
2022-09-11T02:33:03.090Z,2.67
2022-09-11T02:35:50.263Z,2.90
2022-09-11T02:38:39.972Z,2.80
2022-09-11T02:41:24.763Z,2.90
2022-09-11T02:44:42.242Z,2.80
2022-09-11T02:47:52.423Z,2.67
2022-09-11T02:50:41.696Z,2.65
2022-09-11T02:53:40.390Z,2.90
2022-09-11T02:56:48.815Z,2.63
2022-09-11T02:59:30.724Z,2.95
2022-09-11T03:02:01.856Z,2.60
2022-09-11T03:04:31.614Z,3.17
2022-09-11T03:07:00.246Z,2.83
2022-09-11T03:09:27.583Z,3.10
2022-09-11T03:12:03.688Z,2.92
2022-09-11T03:14:32.855Z,2.78
2022-09-11T03:17:00.116Z,3.13
2022-09-11T03:19:27.184Z,2.88
2022-09-11T03:21:55.063Z,2.40
2022-09-11T03:24:23.037Z,3.05
2022-09-11T03:26:49.998Z,2.90
2022-09-11T03:29:17.799Z,2.92
2022-09-11T03:31:46.533Z,3.20
2022-09-11T03:34:14.548Z,3.10
2022-09-11T03:36:41.580Z,3.33
2022-09-11T03:39:10.191Z,3.10
2022-09-11T03:41:37.831Z,3.22
2022-09-11T03:44:05.144Z,2.83
2022-09-11T03:46:35.128Z,3.38
2022-09-11T03:49:02.603Z,3.25
2022-09-11T03:51:35.165Z,3.20
2022-09-11T03:54:04.960Z,3.33
2022-09-11T03:56:31.975Z,3.92
2022-09-11T03:59:05.794Z,3.97
2022-09-11T04:01:35.670Z,3.47
2022-09-11T04:04:04.955Z,3.58
2022-09-11T04:06:40.512Z,3.78
2022-09-11T04:09:15.336Z,3.80
2022-09-11T04:11:43.865Z,3.80
2022-09-11T04:14:19.312Z,3.55
2022-09-11T04:16:47.333Z,3.97
2022-09-11T04:19:14.619Z,3.85
2022-09-11T04:21:43.686Z,3.88
2022-09-11T04:24:10.903Z,4.00
2022-09-11T04:26:38.234Z,3.70
2022-09-11T04:29:11.194Z,4.05
2022-09-11T04:31:38.443Z,4.35
2022-09-11T04:34:06.935Z,4.38
2022-09-11T04:36:36.809Z,4.22
2022-09-11T04:39:07.421Z,4.60
2022-09-11T04:41:35.184Z,4.30
2022-09-11T04:44:05.868Z,4.43
2022-09-11T04:46:39.324Z,4.10
2022-09-11T04:49:10.990Z,4.25
2022-09-11T04:51:40.753Z,4.72
2022-09-11T04:54:16.196Z,4.33
2022-09-11T04:56:44.483Z,4.43
2022-09-11T04:59:20.379Z,4.55
2022-09-11T05:02:09.155Z,4.32
2022-09-11T05:04:39.815Z,5.32
2022-09-11T05:07:07.296Z,4.85
2022-09-11T05:09:35.559Z,4.15
2022-09-11T05:12:03.394Z,4.03
2022-09-11T05:14:35.800Z,4.47
2022-09-11T05:17:03.970Z,4.50
2022-09-11T05:19:33.829Z,4.40
2022-09-11T05:22:00.754Z,5.00
2022-09-11T05:24:29.818Z,4.80
2022-09-11T05:26:58.946Z,4.47
2022-09-11T05:29:32.784Z,4.68
2022-09-11T05:32:08.130Z,4.78
2022-09-11T05:34:35.236Z,4.82
2022-09-11T05:37:02.683Z,4.82
2022-09-11T05:39:33.843Z,4.47
2022-09-11T05:42:04.457Z,5.40
2022-09-11T05:44:36.782Z,4.47
2022-09-11T05:47:04.840Z,5.55
2022-09-11T05:49:32.154Z,5.22
2022-09-11T05:52:01.434Z,5.13
2022-09-11T05:54:30.150Z,5.28
2022-09-11T05:57:06.909Z,5.00
2022-09-11T05:59:36.577Z,5.60
2022-09-11T06:02:04.974Z,5.47
2022-09-11T06:04:43.873Z,5.40
2022-09-11T06:07:12.202Z,5.05
2022-09-11T06:09:41.592Z,5.75
2022-09-11T06:12:12.350Z,5.32
2022-09-11T06:14:43.319Z,5.45
2022-09-11T06:17:12.296Z,6.88
2022-09-11T06:19:42.171Z,5.78
2022-09-11T06:22:10.143Z,6.50
2022-09-11T06:24:47.219Z,6.75
2022-09-11T06:27:16.475Z,6.63
2022-09-11T06:29:45.552Z,5.97
2022-09-11T06:32:13.043Z,6.25
2022-09-11T06:34:40.992Z,7.00
2022-09-11T06:37:14.138Z,6.82
2022-09-11T06:39:41.477Z,6.57
2022-09-11T06:42:11.051Z,6.43
2022-09-11T06:44:46.582Z,6.60
2022-09-11T06:47:15.842Z,7.63
2022-09-11T06:49:42.976Z,6.97
2022-09-11T06:52:35.180Z,7.03
2022-09-11T06:55:14.565Z,7.32
2022-09-11T06:57:48.068Z,7.60
2022-09-11T07:00:19.384Z,7.60
2022-09-11T07:02:47.344Z,7.13
2022-09-11T07:05:15.091Z,7.88
2022-09-11T07:07:46.236Z,8.07
2022-09-11T07:10:13.637Z,7.93
2022-09-11T07:12:41.851Z,8.05
2022-09-11T07:15:10.449Z,8.98
2022-09-11T07:17:37.635Z,8.13
2022-09-11T07:20:08.323Z,8.60
2022-09-11T07:22:35.424Z,7.80
2022-09-11T07:25:07.433Z,9.13
2022-09-11T07:27:39.105Z,8.82
2022-09-11T07:30:08.978Z,10.20
2022-09-11T07:32:39.206Z,9.32
2022-09-11T07:35:07.198Z,9.25
2022-09-11T07:37:37.468Z,9.27
2022-09-11T07:40:07.893Z,9.05
2022-09-11T07:42:34.920Z,8.88
2022-09-11T07:45:23.025Z,8.85
2022-09-11T07:48:10.885Z,7.15
2022-09-11T07:50:39.232Z,6.70
2022-09-11T07:53:07.643Z,5.80
2022-09-11T07:55:35.801Z,5.75
2022-09-11T07:58:35.224Z,5.85
2022-09-11T08:01:12.247Z,5.70
2022-09-11T08:03:46.428Z,5.53
2022-09-11T08:06:22.313Z,5.57
2022-09-11T08:08:57.690Z,5.45
2022-09-11T08:11:30.184Z,4.43
2022-09-11T08:14:02.916Z,4.47
2022-09-11T08:19:00.001Z,3.97
2022-09-11T08:21:27.777Z,4.25
2022-09-11T08:23:55.457Z,4.35
2022-09-11T08:26:27.262Z,4.30
2022-09-11T08:28:57.968Z,4.53
2022-09-11T08:31:28.142Z,4.13
2022-09-11T08:34:10.767Z,4.57
2022-09-11T08:36:42.663Z,4.57
2022-09-11T08:39:10.887Z,4.43
2022-09-11T08:41:56.437Z,4.68
2022-09-11T08:44:59.658Z,5.43
2022-09-11T08:47:48.194Z,5.07
2022-09-11T08:57:50.579Z,4.88
2022-09-11T09:01:03.136Z,6.70
2022-09-11T09:04:08.552Z,6.95
2022-09-11T09:07:11.428Z,7.05
2022-09-11T09:10:36.747Z,6.78
2022-09-11T09:13:46.133Z,7.65
2022-09-11T09:16:52.207Z,9.35
2022-09-11T09:28:39.208Z,10.93
2022-09-11T09:31:11.789Z,11.07
2022-09-11T09:34:55.293Z,12.18
2022-09-11T09:40:40.628Z,11.60
2022-09-11T09:44:05.106Z,12.48
2022-09-11T09:47:00.858Z,13.48
2022-09-11T09:50:50.408Z,13.68
2022-09-11T10:09:03.674Z,13.25
2022-09-11T10:12:38.341Z,11.80
2022-09-11T10:16:07.579Z,11.00
2022-09-11T10:22:10.688Z,10.93
2022-09-11T10:24:54.555Z,10.18
2022-09-11T10:27:43.021Z,10.38
2022-09-11T10:31:00.322Z,10.45
2022-09-11T10:35:04.395Z,10.50
2022-09-11T10:41:47.637Z,10.70
2022-09-11T10:46:31.544Z,10.65
2022-09-11T10:57:33.584Z,11.55
2022-09-11T11:00:14.531Z,11.32
2022-09-11T11:02:47.876Z,10.63
2022-09-11T11:10:44.796Z,10.43
2022-09-11T11:13:45.705Z,9.15
2022-09-11T11:16:27.271Z,10.30
2022-09-11T11:19:28.515Z,8.85
2022-09-11T11:22:34.703Z,9.10
2022-09-11T11:26:17.933Z,9.25
2022-09-11T11:29:22.486Z,10.85
2022-09-11T11:32:15.845Z,10.50
2022-09-11T11:35:12.846Z,9.55
2022-09-11T11:37:45.718Z,10.88
2022-09-11T11:43:04.630Z,10.82
2022-09-11T11:45:59.869Z,10.77
2022-09-11T11:49:26.977Z,11.40
2022-09-11T11:56:55.410Z,10.45
2022-09-11T12:00:55.234Z,10.13
2022-09-11T12:07:20.798Z,11.82
2022-09-11T12:10:05.003Z,11.32
2022-09-11T12:12:48.820Z,12.52
2022-09-11T12:16:10.679Z,11.88
2022-09-11T12:19:00.553Z,10.68
2022-09-11T12:22:19.458Z,11.37
2022-09-11T12:24:59.221Z,11.38
2022-09-11T12:28:10.910Z,11.75
2022-09-11T12:31:21.537Z,11.27
2022-09-11T12:34:52.236Z,10.80
2022-09-11T12:52:30.642Z,10.75
2022-09-11T12:55:08.724Z,11.03
2022-09-11T12:57:40.980Z,11.93
2022-09-11T13:00:34.958Z,12.70
2022-09-11T13:03:15.900Z,11.75
2022-09-11T13:05:45.362Z,12.20
2022-09-11T13:08:24.119Z,12.18
2022-09-11T13:10:51.665Z,11.88
2022-09-11T13:13:37.493Z,10.43
2022-09-11T13:16:50.621Z,10.10
2022-09-11T13:19:22.693Z,9.05
2022-09-11T13:22:06.615Z,8.50
2022-09-11T13:24:53.098Z,7.28
2022-09-11T13:36:08.534Z,5.47
2022-09-11T13:40:16.617Z,4.68
2022-09-11T13:46:26.271Z,4.35
2022-09-11T13:53:39.412Z,4.07
2022-09-11T14:09:13.898Z,3.80
2022-09-11T14:11:46.148Z,4.32
2022-09-11T14:15:57.028Z,3.70
2022-09-11T14:26:43.508Z,3.28
2022-09-11T14:29:42.865Z,3.17
2022-09-11T14:32:46.488Z,3.20
2022-09-11T14:36:07.667Z,3.13
2022-09-11T14:38:53.104Z,3.40
2022-09-11T14:41:26.094Z,3.60
2022-09-11T14:43:56.691Z,3.63
2022-09-11T14:46:24.649Z,3.75
2022-09-11T14:49:02.758Z,3.47
2022-09-11T14:51:43.212Z,3.65
2022-09-11T14:54:19.319Z,3.78
2022-09-11T14:56:56.930Z,3.67
2022-09-11T14:59:33.173Z,4.13
2022-09-11T15:02:29.870Z,3.90
2022-09-11T15:04:58.601Z,4.10
2022-09-11T15:07:28.131Z,3.58
2022-09-11T15:13:34.191Z,3.20
2022-09-11T15:21:18.639Z,3.83
2022-09-11T15:23:59.999Z,4.07
2022-09-11T15:30:29.087Z,4.35
2022-09-11T15:41:11.098Z,3.42
2022-09-11T15:43:53.030Z,4.00
2022-09-11T15:55:47.248Z,3.95
2022-09-11T15:58:32.754Z,3.35
2022-09-11T16:17:31.049Z,3.90
2022-09-11T16:20:01.832Z,3.90
2022-09-11T16:22:31.373Z,4.22
2022-09-11T16:24:59.782Z,4.15
2022-09-11T16:27:26.761Z,4.30
2022-09-11T16:32:43.636Z,4.90
2022-09-11T16:35:13.395Z,4.55
2022-09-11T16:37:41.200Z,5.28
2022-09-11T16:40:09.698Z,5.20
2022-09-11T16:42:36.731Z,4.50
2022-09-11T16:45:03.892Z,4.88
2022-09-11T16:47:32.367Z,5.43
2022-09-11T16:50:07.766Z,5.63
2022-09-11T16:52:37.605Z,5.32
2022-09-11T16:55:07.680Z,5.30
2022-09-11T16:57:38.514Z,5.28
2022-09-11T17:00:14.118Z,5.30
2022-09-11T17:08:40.798Z,5.50
2022-09-11T17:11:12.451Z,5.35
2022-09-11T17:13:43.045Z,4.68
2022-09-11T17:16:21.094Z,6.10
2022-09-11T17:19:07.475Z,5.53
2022-09-11T17:21:37.993Z,4.95
2022-09-11T17:25:39.041Z,5.47
2022-09-11T17:28:20.555Z,5.53
2022-09-11T17:48:48.309Z,6.40
2022-09-11T17:51:26.168Z,5.57
2022-09-11T17:54:03.139Z,5.43
2022-09-11T17:56:31.149Z,5.72
2022-09-11T17:59:04.447Z,5.13
2022-09-11T18:06:11.500Z,5.55
2022-09-11T18:14:32.056Z,5.57
2022-09-11T18:16:57.988Z,6.05
2022-09-11T18:22:43.000Z,5.55
2022-09-11T18:25:32.921Z,5.03
2022-09-11T18:32:20.080Z,5.53
2022-09-11T18:35:10.182Z,5.15
2022-09-11T18:37:37.461Z,5.70
2022-09-11T18:40:04.891Z,5.32
2022-09-11T18:42:33.816Z,5.75
2022-09-11T18:45:01.197Z,5.07
2022-09-11T18:47:30.615Z,5.32
2022-09-11T18:49:59.614Z,5.55
2022-09-11T18:52:28.757Z,5.60
2022-09-11T18:54:55.821Z,5.28
2022-09-11T18:57:29.201Z,5.32
2022-09-11T18:59:57.223Z,5.30
2022-09-11T19:02:28.336Z,5.90
2022-09-11T19:04:55.516Z,5.70
2022-09-11T19:07:28.594Z,5.43
2022-09-11T19:10:21.753Z,5.82
2022-09-11T19:12:59.616Z,5.78
2022-09-11T19:15:28.353Z,6.07
2022-09-11T19:18:02.421Z,6.13
2022-09-11T19:20:42.468Z,5.88
2022-09-11T19:26:47.367Z,5.85
2022-09-11T19:32:29.273Z,5.50
2022-09-11T19:35:55.285Z,5.65
2022-09-11T19:39:02.898Z,5.78
2022-09-11T19:45:18.409Z,5.72
2022-09-11T19:47:57.349Z,6.25
2022-09-11T19:58:44.506Z,5.90
2022-09-11T20:01:46.149Z,6.40
2022-09-11T20:04:44.426Z,6.60
2022-09-11T20:08:00.449Z,6.72
2022-09-11T20:14:52.263Z,6.22
2022-09-11T20:18:43.996Z,6.55
2022-09-11T20:25:27.422Z,6.47
2022-09-11T20:32:42.327Z,6.32
2022-09-11T20:39:27.236Z,6.60
2022-09-11T20:45:31.128Z,7.32
2022-09-11T20:52:10.840Z,5.93
2022-09-11T21:06:24.787Z,6.35
2022-09-11T21:14:41.160Z,7.00
2022-09-11T21:17:09.736Z,6.50
2022-09-11T21:20:29.559Z,7.05
2022-09-11T21:23:39.894Z,7.55
2022-09-11T21:26:36.771Z,7.40
2022-09-11T21:29:23.146Z,7.22
2022-09-11T21:32:03.425Z,7.10
2022-09-11T21:39:22.391Z,7.00
2022-09-11T21:45:27.896Z,6.38
2022-09-11T21:55:51.149Z,7.80
2022-09-11T21:58:21.042Z,7.70
2022-09-11T22:13:34.519Z,8.77
2022-09-11T22:16:23.595Z,9.10
2022-09-11T22:27:56.553Z,8.63
2022-09-11T22:31:28.903Z,7.75
2022-09-11T22:33:57.484Z,7.60
2022-09-11T22:37:17.671Z,7.95
2022-09-11T22:46:48.940Z,7.50
2022-09-11T22:50:43.522Z,8.02
2022-09-11T22:54:09.918Z,8.02
2022-09-11T23:01:57.092Z,8.02
2022-09-11T23:11:48.327Z,7.75
2022-09-11T23:14:39.973Z,8.55
2022-09-11T23:17:47.882Z,8.88
2022-09-11T23:21:12.722Z,9.00
2022-09-11T23:24:07.007Z,9.80
2022-09-11T23:27:10.862Z,10.05
2022-09-11T23:29:49.875Z,10.18
2022-09-11T23:34:08.302Z,11.55
2022-09-11T23:40:49.757Z,10.77
2022-09-11T23:44:10.951Z,10.40
2022-09-11T23:47:05.964Z,10.57
2022-09-11T23:49:36.151Z,11.95
2022-09-11T23:56:08.122Z,12.63
2022-09-11T23:58:39.853Z,11.93
